sensor_id;sensor_type;location;lat;lon;timestamp;temperature;humidity
34201;DHT22;20469;55.638;37.670;2022-07-29T00:00:11;18.30;99.90
34201;DHT22;20469;55.638;37.670;2022-07-29T00:02:39;18.10;99.90
34201;DHT22;20469;55.638;37.670;2022-07-29T00:05:08;18.00;99.90
34201;DHT22;20469;55.638;37.670;2022-07-29T00:07:35;17.90;99.90
34201;DHT22;20469;55.638;37.670;2022-07-29T00:10:03;18.20;99.90
34201;DHT22;20469;55.638;37.670;2022-07-29T00:12:31;17.70;99.90
34201;DHT22;20469;55.638;37.670;2022-07-29T00:14:58;17.60;99.90
34201;DHT22;20469;55.638;37.670;2022-07-29T00:17:26;17.40;99.90
34201;DHT22;20469;55.638;37.670;2022-07-29T00:19:53;17.40;99.90
34201;DHT22;20469;55.638;37.670;2022-07-29T00:22:21;17.40;99.90
34201;DHT22;20469;55.638;37.670;2022-07-29T00:24:48;17.30;99.90
34201;DHT22;20469;55.638;37.670;2022-07-29T00:27:17;17.30;99.90
34201;DHT22;20469;55.638;37.670;2022-07-29T00:29:44;17.20;99.90
34201;DHT22;20469;55.638;37.670;2022-07-29T00:32:11;17.30;99.90
34201;DHT22;20469;55.638;37.670;2022-07-29T00:34:39;17.10;99.90
34201;DHT22;20469;55.638;37.670;2022-07-29T00:37:25;17.20;99.90
34201;DHT22;20469;55.638;37.670;2022-07-29T00:39:53;17.10;99.90
34201;DHT22;20469;55.638;37.670;2022-07-29T00:42:20;16.90;99.90
34201;DHT22;20469;55.638;37.670;2022-07-29T00:44:47;16.90;99.90
34201;DHT22;20469;55.638;37.670;2022-07-29T00:47:14;16.90;99.90
34201;DHT22;20469;55.638;37.670;2022-07-29T00:49:42;16.80;99.90
34201;DHT22;20469;55.638;37.670;2022-07-29T00:52:13;16.70;99.90
34201;DHT22;20469;55.638;37.670;2022-07-29T00:54:43;16.70;99.90
34201;DHT22;20469;55.638;37.670;2022-07-29T00:57:11;16.70;99.90
34201;DHT22;20469;55.638;37.670;2022-07-29T00:59:39;16.70;99.90
34201;DHT22;20469;55.638;37.670;2022-07-29T01:02:06;16.60;99.90
34201;DHT22;20469;55.638;37.670;2022-07-29T01:04:34;16.60;99.90
34201;DHT22;20469;55.638;37.670;2022-07-29T01:07:02;16.80;99.90
34201;DHT22;20469;55.638;37.670;2022-07-29T01:09:31;16.60;99.90
34201;DHT22;20469;55.638;37.670;2022-07-29T01:12:17;16.60;99.90
34201;DHT22;20469;55.638;37.670;2022-07-29T01:14:47;16.50;99.90
34201;DHT22;20469;55.638;37.670;2022-07-29T01:17:41;16.50;99.90
34201;DHT22;20469;55.638;37.670;2022-07-29T01:25:45;16.50;99.90
34201;DHT22;20469;55.638;37.670;2022-07-29T01:31:03;16.40;99.90
34201;DHT22;20469;55.638;37.670;2022-07-29T01:33:35;16.40;99.90
34201;DHT22;20469;55.638;37.670;2022-07-29T01:36:25;16.50;99.90
34201;DHT22;20469;55.638;37.670;2022-07-29T01:39:17;16.60;99.90
34201;DHT22;20469;55.638;37.670;2022-07-29T01:45:17;16.30;99.90
34201;DHT22;20469;55.638;37.670;2022-07-29T01:48:05;16.40;99.90
34201;DHT22;20469;55.638;37.670;2022-07-29T01:50:37;16.40;99.90
34201;DHT22;20469;55.638;37.670;2022-07-29T01:53:07;16.30;99.90
34201;DHT22;20469;55.638;37.670;2022-07-29T01:55:39;16.20;99.90
34201;DHT22;20469;55.638;37.670;2022-07-29T01:58:08;16.30;99.90
34201;DHT22;20469;55.638;37.670;2022-07-29T02:00:36;16.40;99.90
34201;DHT22;20469;55.638;37.670;2022-07-29T02:03:09;16.50;99.90
34201;DHT22;20469;55.638;37.670;2022-07-29T02:05:38;16.40;99.90
34201;DHT22;20469;55.638;37.670;2022-07-29T02:08:06;16.50;99.90
34201;DHT22;20469;55.638;37.670;2022-07-29T02:10:35;16.30;99.90
34201;DHT22;20469;55.638;37.670;2022-07-29T02:13:03;16.40;99.90
34201;DHT22;20469;55.638;37.670;2022-07-29T02:15:34;16.40;99.90
34201;DHT22;20469;55.638;37.670;2022-07-29T02:18:08;16.40;99.90
34201;DHT22;20469;55.638;37.670;2022-07-29T02:20:38;16.50;99.90
34201;DHT22;20469;55.638;37.670;2022-07-29T02:23:08;16.60;99.90
34201;DHT22;20469;55.638;37.670;2022-07-29T02:25:37;16.50;99.90
34201;DHT22;20469;55.638;37.670;2022-07-29T02:28:06;16.60;99.90
34201;DHT22;20469;55.638;37.670;2022-07-29T02:30:40;16.70;99.90
34201;DHT22;20469;55.638;37.670;2022-07-29T02:33:12;16.70;99.90
34201;DHT22;20469;55.638;37.670;2022-07-29T02:35:41;16.60;99.90
34201;DHT22;20469;55.638;37.670;2022-07-29T02:38:13;16.70;99.90
34201;DHT22;20469;55.638;37.670;2022-07-29T02:41:03;16.60;99.90
34201;DHT22;20469;55.638;37.670;2022-07-29T02:43:31;16.80;99.90
34201;DHT22;20469;55.638;37.670;2022-07-29T02:46:00;16.70;99.90
34201;DHT22;20469;55.638;37.670;2022-07-29T02:48:36;16.70;99.90
34201;DHT22;20469;55.638;37.670;2022-07-29T02:51:19;16.80;99.90
34201;DHT22;20469;55.638;37.670;2022-07-29T02:54:09;16.90;99.90
34201;DHT22;20469;55.638;37.670;2022-07-29T02:56:38;16.90;99.90
34201;DHT22;20469;55.638;37.670;2022-07-29T02:59:10;17.00;99.90
34201;DHT22;20469;55.638;37.670;2022-07-29T03:01:40;16.80;99.90
34201;DHT22;20469;55.638;37.670;2022-07-29T03:04:11;17.00;99.90
34201;DHT22;20469;55.638;37.670;2022-07-29T03:06:41;17.20;99.90
34201;DHT22;20469;55.638;37.670;2022-07-29T03:09:10;17.60;99.90
34201;DHT22;20469;55.638;37.670;2022-07-29T03:11:41;17.70;99.90
34201;DHT22;20469;55.638;37.670;2022-07-29T03:14:18;17.50;99.90
34201;DHT22;20469;55.638;37.670;2022-07-29T03:16:47;17.40;99.90
34201;DHT22;20469;55.638;37.670;2022-07-29T03:19:16;17.40;99.90
34201;DHT22;20469;55.638;37.670;2022-07-29T03:21:43;17.40;99.90
34201;DHT22;20469;55.638;37.670;2022-07-29T03:24:27;17.40;99.90
34201;DHT22;20469;55.638;37.670;2022-07-29T03:26:55;17.50;99.90
34201;DHT22;20469;55.638;37.670;2022-07-29T03:29:23;17.40;99.90
34201;DHT22;20469;55.638;37.670;2022-07-29T03:31:59;17.60;99.90
34201;DHT22;20469;55.638;37.670;2022-07-29T03:34:28;17.70;99.90
34201;DHT22;20469;55.638;37.670;2022-07-29T03:36:55;17.70;99.90
34201;DHT22;20469;55.638;37.670;2022-07-29T03:39:25;17.80;99.90
34201;DHT22;20469;55.638;37.670;2022-07-29T03:41:56;17.90;99.90
34201;DHT22;20469;55.638;37.670;2022-07-29T03:44:25;17.80;99.90
34201;DHT22;20469;55.638;37.670;2022-07-29T03:46:54;17.90;99.90
34201;DHT22;20469;55.638;37.670;2022-07-29T03:49:23;17.80;99.90
34201;DHT22;20469;55.638;37.670;2022-07-29T03:51:52;18.10;99.90
34201;DHT22;20469;55.638;37.670;2022-07-29T03:54:20;18.50;99.90
34201;DHT22;20469;55.638;37.670;2022-07-29T03:56:48;18.10;99.90
34201;DHT22;20469;55.638;37.670;2022-07-29T03:59:17;18.30;99.90
34201;DHT22;20469;55.638;37.670;2022-07-29T04:01:46;18.20;99.90
34201;DHT22;20469;55.638;37.670;2022-07-29T04:04:22;18.50;99.90
34201;DHT22;20469;55.638;37.670;2022-07-29T04:06:53;18.70;99.90
34201;DHT22;20469;55.638;37.670;2022-07-29T04:09:20;18.50;99.90
34201;DHT22;20469;55.638;37.670;2022-07-29T04:11:47;18.50;99.90
34201;DHT22;20469;55.638;37.670;2022-07-29T04:14:33;18.70;99.90
34201;DHT22;20469;55.638;37.670;2022-07-29T04:17:02;18.80;99.90
34201;DHT22;20469;55.638;37.670;2022-07-29T04:19:31;18.40;99.90
34201;DHT22;20469;55.638;37.670;2022-07-29T04:21:59;18.80;99.90
34201;DHT22;20469;55.638;37.670;2022-07-29T04:24:26;19.00;99.90
34201;DHT22;20469;55.638;37.670;2022-07-29T04:26:54;18.90;99.90
34201;DHT22;20469;55.638;37.670;2022-07-29T04:29:21;19.10;99.90
34201;DHT22;20469;55.638;37.670;2022-07-29T04:31:48;19.10;99.90
34201;DHT22;20469;55.638;37.670;2022-07-29T04:34:16;19.10;99.90
34201;DHT22;20469;55.638;37.670;2022-07-29T04:36:43;19.20;99.90
34201;DHT22;20469;55.638;37.670;2022-07-29T04:39:11;18.90;99.90
34201;DHT22;20469;55.638;37.670;2022-07-29T04:41:38;19.40;99.90
34201;DHT22;20469;55.638;37.670;2022-07-29T04:44:05;19.50;99.90
34201;DHT22;20469;55.638;37.670;2022-07-29T04:46:34;19.70;99.90
34201;DHT22;20469;55.638;37.670;2022-07-29T04:49:03;19.70;99.90
34201;DHT22;20469;55.638;37.670;2022-07-29T04:51:30;19.80;99.90
34201;DHT22;20469;55.638;37.670;2022-07-29T04:53:57;19.90;99.90
34201;DHT22;20469;55.638;37.670;2022-07-29T04:56:25;19.90;99.90
34201;DHT22;20469;55.638;37.670;2022-07-29T04:58:52;19.70;99.90
34201;DHT22;20469;55.638;37.670;2022-07-29T05:01:19;19.90;99.90
34201;DHT22;20469;55.638;37.670;2022-07-29T05:03:47;19.70;99.90
34201;DHT22;20469;55.638;37.670;2022-07-29T05:06:15;19.30;99.90
34201;DHT22;20469;55.638;37.670;2022-07-29T05:08:42;19.60;99.90
34201;DHT22;20469;55.638;37.670;2022-07-29T05:11:09;20.10;99.90
34201;DHT22;20469;55.638;37.670;2022-07-29T05:13:39;20.00;99.90
34201;DHT22;20469;55.638;37.670;2022-07-29T05:16:13;20.00;99.90
34201;DHT22;20469;55.638;37.670;2022-07-29T05:18:41;20.00;99.90
34201;DHT22;20469;55.638;37.670;2022-07-29T05:21:09;19.50;99.90
34201;DHT22;20469;55.638;37.670;2022-07-29T05:23:48;19.80;99.90
34201;DHT22;20469;55.638;37.670;2022-07-29T05:26:15;19.70;99.90
34201;DHT22;20469;55.638;37.670;2022-07-29T05:28:43;20.10;99.90
34201;DHT22;20469;55.638;37.670;2022-07-29T05:31:11;20.60;99.90
34201;DHT22;20469;55.638;37.670;2022-07-29T05:33:38;20.70;99.90
34201;DHT22;20469;55.638;37.670;2022-07-29T05:36:06;20.50;99.90
34201;DHT22;20469;55.638;37.670;2022-07-29T05:38:35;20.30;99.90
34201;DHT22;20469;55.638;37.670;2022-07-29T05:41:04;20.70;99.90
34201;DHT22;20469;55.638;37.670;2022-07-29T05:43:37;21.20;99.90
34201;DHT22;20469;55.638;37.670;2022-07-29T05:46:04;20.40;99.90
34201;DHT22;20469;55.638;37.670;2022-07-29T05:48:31;20.20;99.90
34201;DHT22;20469;55.638;37.670;2022-07-29T05:50:59;20.50;99.90
34201;DHT22;20469;55.638;37.670;2022-07-29T05:53:26;20.60;99.90
34201;DHT22;20469;55.638;37.670;2022-07-29T05:55:53;20.50;99.90
34201;DHT22;20469;55.638;37.670;2022-07-29T05:58:20;20.70;99.90
34201;DHT22;20469;55.638;37.670;2022-07-29T06:00:47;21.00;99.90
34201;DHT22;20469;55.638;37.670;2022-07-29T06:03:15;21.20;99.90
34201;DHT22;20469;55.638;37.670;2022-07-29T06:05:42;21.50;99.90
34201;DHT22;20469;55.638;37.670;2022-07-29T06:08:09;21.40;99.90
34201;DHT22;20469;55.638;37.670;2022-07-29T06:10:37;21.30;99.90
34201;DHT22;20469;55.638;37.670;2022-07-29T06:13:04;21.20;99.90
34201;DHT22;20469;55.638;37.670;2022-07-29T06:15:39;20.60;99.90
34201;DHT22;20469;55.638;37.670;2022-07-29T06:18:06;20.70;99.90
34201;DHT22;20469;55.638;37.670;2022-07-29T06:20:36;20.20;99.90
34201;DHT22;20469;55.638;37.670;2022-07-29T06:23:06;20.80;99.90
34201;DHT22;20469;55.638;37.670;2022-07-29T06:25:33;21.40;99.90
34201;DHT22;20469;55.638;37.670;2022-07-29T06:28:02;21.40;99.90
34201;DHT22;20469;55.638;37.670;2022-07-29T06:30:29;21.50;99.90
34201;DHT22;20469;55.638;37.670;2022-07-29T06:32:57;21.90;99.90
34201;DHT22;20469;55.638;37.670;2022-07-29T06:35:24;22.10;99.90
34201;DHT22;20469;55.638;37.670;2022-07-29T06:38:08;21.70;99.90
34201;DHT22;20469;55.638;37.670;2022-07-29T06:40:55;21.80;99.90
34201;DHT22;20469;55.638;37.670;2022-07-29T06:43:42;21.80;99.90
34201;DHT22;20469;55.638;37.670;2022-07-29T06:46:21;22.50;99.90
34201;DHT22;20469;55.638;37.670;2022-07-29T06:48:50;21.90;99.90
34201;DHT22;20469;55.638;37.670;2022-07-29T06:51:19;22.20;99.90
34201;DHT22;20469;55.638;37.670;2022-07-29T06:53:51;22.50;99.90
34201;DHT22;20469;55.638;37.670;2022-07-29T06:56:30;22.60;99.90
34201;DHT22;20469;55.638;37.670;2022-07-29T06:59:07;22.60;99.90
34201;DHT22;20469;55.638;37.670;2022-07-29T07:01:36;22.90;99.90
34201;DHT22;20469;55.638;37.670;2022-07-29T07:04:04;22.30;99.90
34201;DHT22;20469;55.638;37.670;2022-07-29T07:06:31;22.30;99.90
34201;DHT22;20469;55.638;37.670;2022-07-29T07:08:59;22.60;99.90
34201;DHT22;20469;55.638;37.670;2022-07-29T07:11:26;22.80;99.90
34201;DHT22;20469;55.638;37.670;2022-07-29T07:13:53;22.60;99.90
34201;DHT22;20469;55.638;37.670;2022-07-29T07:16:28;23.20;99.90
34201;DHT22;20469;55.638;37.670;2022-07-29T07:18:55;22.90;99.90
34201;DHT22;20469;55.638;37.670;2022-07-29T07:21:22;24.20;99.90
34201;DHT22;20469;55.638;37.670;2022-07-29T07:23:49;22.70;99.90
34201;DHT22;20469;55.638;37.670;2022-07-29T07:26:16;22.40;99.90
34201;DHT22;20469;55.638;37.670;2022-07-29T07:28:44;22.20;99.90
34201;DHT22;20469;55.638;37.670;2022-07-29T07:31:11;22.60;99.90
34201;DHT22;20469;55.638;37.670;2022-07-29T07:33:41;23.30;99.90
34201;DHT22;20469;55.638;37.670;2022-07-29T07:36:09;24.50;99.90
34201;DHT22;20469;55.638;37.670;2022-07-29T07:38:36;24.40;99.90
34201;DHT22;20469;55.638;37.670;2022-07-29T07:41:03;24.00;98.90
34201;DHT22;20469;55.638;37.670;2022-07-29T07:43:31;23.80;98.90
34201;DHT22;20469;55.638;37.670;2022-07-29T07:45:58;23.40;99.20
34201;DHT22;20469;55.638;37.670;2022-07-29T07:48:35;24.20;97.10
34201;DHT22;20469;55.638;37.670;2022-07-29T07:51:03;23.20;96.20
34201;DHT22;20469;55.638;37.670;2022-07-29T07:53:30;23.50;98.50
34201;DHT22;20469;55.638;37.670;2022-07-29T07:55:58;22.40;97.90
34201;DHT22;20469;55.638;37.670;2022-07-29T07:58:41;23.20;99.90
34201;DHT22;20469;55.638;37.670;2022-07-29T08:01:09;23.50;95.70
34201;DHT22;20469;55.638;37.670;2022-07-29T08:03:36;23.90;96.90
34201;DHT22;20469;55.638;37.670;2022-07-29T08:06:04;24.10;94.70
34201;DHT22;20469;55.638;37.670;2022-07-29T08:08:32;23.40;96.20
34201;DHT22;20469;55.638;37.670;2022-07-29T08:10:59;22.70;96.30
34201;DHT22;20469;55.638;37.670;2022-07-29T08:13:34;22.70;96.30
34201;DHT22;20469;55.638;37.670;2022-07-29T08:16:02;23.00;99.40
34201;DHT22;20469;55.638;37.670;2022-07-29T08:18:39;22.90;98.30
34201;DHT22;20469;55.638;37.670;2022-07-29T08:21:07;22.70;96.50
34201;DHT22;20469;55.638;37.670;2022-07-29T08:23:34;23.10;98.70
34201;DHT22;20469;55.638;37.670;2022-07-29T08:26:19;23.00;96.80
34201;DHT22;20469;55.638;37.670;2022-07-29T08:28:47;23.60;93.40
34201;DHT22;20469;55.638;37.670;2022-07-29T08:31:17;24.00;95.90
34201;DHT22;20469;55.638;37.670;2022-07-29T08:33:45;23.90;94.20
34201;DHT22;20469;55.638;37.670;2022-07-29T08:36:12;25.00;93.50
34201;DHT22;20469;55.638;37.670;2022-07-29T08:38:40;25.30;92.40
34201;DHT22;20469;55.638;37.670;2022-07-29T08:41:07;24.80;87.50
34201;DHT22;20469;55.638;37.670;2022-07-29T08:43:34;24.10;82.00
34201;DHT22;20469;55.638;37.670;2022-07-29T08:46:04;24.90;83.00
34201;DHT22;20469;55.638;37.670;2022-07-29T08:48:32;25.60;81.80
34201;DHT22;20469;55.638;37.670;2022-07-29T08:51:01;25.50;75.50
34201;DHT22;20469;55.638;37.670;2022-07-29T08:53:30;25.60;81.60
34201;DHT22;20469;55.638;37.670;2022-07-29T08:55:58;25.10;80.20
34201;DHT22;20469;55.638;37.670;2022-07-29T08:58:27;24.80;81.40
34201;DHT22;20469;55.638;37.670;2022-07-29T09:01:03;24.50;79.10
34201;DHT22;20469;55.638;37.670;2022-07-29T09:03:36;26.20;78.20
34201;DHT22;20469;55.638;37.670;2022-07-29T09:06:18;26.30;72.40
34201;DHT22;20469;55.638;37.670;2022-07-29T09:08:48;26.40;74.40
34201;DHT22;20469;55.638;37.670;2022-07-29T09:11:16;25.50;65.30
34201;DHT22;20469;55.638;37.670;2022-07-29T09:13:43;24.30;74.10
34201;DHT22;20469;55.638;37.670;2022-07-29T09:16:11;25.60;76.40
34201;DHT22;20469;55.638;37.670;2022-07-29T09:18:43;26.40;69.10
34201;DHT22;20469;55.638;37.670;2022-07-29T09:21:15;25.70;71.10
34201;DHT22;20469;55.638;37.670;2022-07-29T09:24:08;26.50;70.80
34201;DHT22;20469;55.638;37.670;2022-07-29T09:26:43;26.70;70.10
34201;DHT22;20469;55.638;37.670;2022-07-29T09:29:19;25.60;68.40
34201;DHT22;20469;55.638;37.670;2022-07-29T09:31:48;24.80;72.40
34201;DHT22;20469;55.638;37.670;2022-07-29T09:34:24;23.90;77.70
34201;DHT22;20469;55.638;37.670;2022-07-29T09:36:53;24.80;78.00
34201;DHT22;20469;55.638;37.670;2022-07-29T09:42:06;25.70;62.50
34201;DHT22;20469;55.638;37.670;2022-07-29T09:44:47;26.40;67.10
34201;DHT22;20469;55.638;37.670;2022-07-29T09:47:20;26.20;57.30
34201;DHT22;20469;55.638;37.670;2022-07-29T09:49:55;26.60;67.10
34201;DHT22;20469;55.638;37.670;2022-07-29T09:52:30;26.40;63.10
34201;DHT22;20469;55.638;37.670;2022-07-29T09:55:08;25.20;65.10
34201;DHT22;20469;55.638;37.670;2022-07-29T09:57:39;26.20;64.90
34201;DHT22;20469;55.638;37.670;2022-07-29T10:00:12;26.60;64.90
34201;DHT22;20469;55.638;37.670;2022-07-29T10:02:41;25.90;63.70
34201;DHT22;20469;55.638;37.670;2022-07-29T10:05:25;25.20;68.50
34201;DHT22;20469;55.638;37.670;2022-07-29T10:08:02;25.70;64.20
34201;DHT22;20469;55.638;37.670;2022-07-29T10:10:31;26.20;60.70
34201;DHT22;20469;55.638;37.670;2022-07-29T10:13:02;26.80;62.40
34201;DHT22;20469;55.638;37.670;2022-07-29T10:15:39;26.90;54.70
34201;DHT22;20469;55.638;37.670;2022-07-29T10:18:08;26.10;59.00
34201;DHT22;20469;55.638;37.670;2022-07-29T10:20:37;25.60;56.10
34201;DHT22;20469;55.638;37.670;2022-07-29T10:23:05;25.40;55.90
34201;DHT22;20469;55.638;37.670;2022-07-29T10:25:32;26.90;57.40
34201;DHT22;20469;55.638;37.670;2022-07-29T10:27:59;28.00;55.60
34201;DHT22;20469;55.638;37.670;2022-07-29T10:30:26;27.50;46.40
34201;DHT22;20469;55.638;37.670;2022-07-29T10:44:05;24.70;56.00
34201;DHT22;20469;55.638;37.670;2022-07-29T10:46:38;24.60;54.80
34201;DHT22;20469;55.638;37.670;2022-07-29T10:49:17;25.00;56.80
34201;DHT22;20469;55.638;37.670;2022-07-29T10:51:59;28.10;45.30
34201;DHT22;20469;55.638;37.670;2022-07-29T10:57:13;30.60;39.70
34201;DHT22;20469;55.638;37.670;2022-07-29T10:59:42;30.70;34.50
34201;DHT22;20469;55.638;37.670;2022-07-29T11:05:12;28.70;30.30
34201;DHT22;20469;55.638;37.670;2022-07-29T11:10:50;25.20;44.00
34201;DHT22;20469;55.638;37.670;2022-07-29T11:16:15;25.40;51.00
34201;DHT22;20469;55.638;37.670;2022-07-29T11:21:52;30.70;29.70
34201;DHT22;20469;55.638;37.670;2022-07-29T11:24:31;31.80;22.90
34201;DHT22;20469;55.638;37.670;2022-07-29T11:27:18;32.60;21.10
34201;DHT22;20469;55.638;37.670;2022-07-29T11:29:58;33.00;24.70
34201;DHT22;20469;55.638;37.670;2022-07-29T11:32:41;34.00;17.00
34201;DHT22;20469;55.638;37.670;2022-07-29T11:35:15;31.60;19.00
34201;DHT22;20469;55.638;37.670;2022-07-29T11:37:46;28.80;23.80
34201;DHT22;20469;55.638;37.670;2022-07-29T11:40:21;26.80;28.40
34201;DHT22;20469;55.638;37.670;2022-07-29T11:42:49;26.60;30.90
34201;DHT22;20469;55.638;37.670;2022-07-29T11:45:23;26.20;34.30
34201;DHT22;20469;55.638;37.670;2022-07-29T11:48:19;26.20;34.10
34201;DHT22;20469;55.638;37.670;2022-07-29T11:50:59;25.50;38.80
34201;DHT22;20469;55.638;37.670;2022-07-29T11:53:27;25.60;37.70
34201;DHT22;20469;55.638;37.670;2022-07-29T11:55:59;26.30;32.90
34201;DHT22;20469;55.638;37.670;2022-07-29T11:58:29;29.40;34.70
34201;DHT22;20469;55.638;37.670;2022-07-29T12:00:57;28.40;27.90
34201;DHT22;20469;55.638;37.670;2022-07-29T12:03:44;25.80;33.80
34201;DHT22;20469;55.638;37.670;2022-07-29T12:06:13;25.70;37.10
34201;DHT22;20469;55.638;37.670;2022-07-29T12:08:44;27.40;37.30
34201;DHT22;20469;55.638;37.670;2022-07-29T12:11:20;26.30;35.80
34201;DHT22;20469;55.638;37.670;2022-07-29T12:13:51;25.50;39.50
34201;DHT22;20469;55.638;37.670;2022-07-29T12:16:21;25.00;41.80
34201;DHT22;20469;55.638;37.670;2022-07-29T12:18:59;25.00;41.30
34201;DHT22;20469;55.638;37.670;2022-07-29T12:21:29;24.90;46.00
34201;DHT22;20469;55.638;37.670;2022-07-29T12:24:18;25.00;46.40
34201;DHT22;20469;55.638;37.670;2022-07-29T12:26:56;25.70;46.90
34201;DHT22;20469;55.638;37.670;2022-07-29T12:29:24;26.40;39.40
34201;DHT22;20469;55.638;37.670;2022-07-29T12:32:02;27.60;32.60
34201;DHT22;20469;55.638;37.670;2022-07-29T12:34:31;27.00;33.10
34201;DHT22;20469;55.638;37.670;2022-07-29T12:36:58;26.50;40.00
34201;DHT22;20469;55.638;37.670;2022-07-29T12:39:26;27.60;35.20
34201;DHT22;20469;55.638;37.670;2022-07-29T12:41:55;26.60;36.90
34201;DHT22;20469;55.638;37.670;2022-07-29T12:44:50;26.60;43.50
34201;DHT22;20469;55.638;37.670;2022-07-29T12:47:19;28.80;37.50
34201;DHT22;20469;55.638;37.670;2022-07-29T12:49:47;32.30;25.10
34201;DHT22;20469;55.638;37.670;2022-07-29T12:52:33;30.30;21.70
34201;DHT22;20469;55.638;37.670;2022-07-29T12:55:01;27.10;29.90
34201;DHT22;20469;55.638;37.670;2022-07-29T12:57:29;26.20;37.70
34201;DHT22;20469;55.638;37.670;2022-07-29T13:00:08;25.60;38.00
34201;DHT22;20469;55.638;37.670;2022-07-29T13:02:38;25.20;37.70
34201;DHT22;20469;55.638;37.670;2022-07-29T13:05:07;25.20;37.50
34201;DHT22;20469;55.638;37.670;2022-07-29T13:07:35;25.10;42.70
34201;DHT22;20469;55.638;37.670;2022-07-29T13:10:21;25.50;39.90
34201;DHT22;20469;55.638;37.670;2022-07-29T13:13:09;28.50;32.60
34201;DHT22;20469;55.638;37.670;2022-07-29T13:15:39;26.60;32.90
34201;DHT22;20469;55.638;37.670;2022-07-29T13:18:28;26.90;33.30
34201;DHT22;20469;55.638;37.670;2022-07-29T13:20:56;25.90;36.40
34201;DHT22;20469;55.638;37.670;2022-07-29T13:23:24;28.00;29.50
34201;DHT22;20469;55.638;37.670;2022-07-29T13:25:51;26.90;31.30
34201;DHT22;20469;55.638;37.670;2022-07-29T13:28:19;26.10;35.80
34201;DHT22;20469;55.638;37.670;2022-07-29T13:30:48;29.60;26.40
34201;DHT22;20469;55.638;37.670;2022-07-29T13:33:19;33.20;22.90
34201;DHT22;20469;55.638;37.670;2022-07-29T13:35:47;33.00;21.20
34201;DHT22;20469;55.638;37.670;2022-07-29T13:38:14;31.20;21.30
34201;DHT22;20469;55.638;37.670;2022-07-29T13:40:42;32.00;19.90
34201;DHT22;20469;55.638;37.670;2022-07-29T13:43:10;33.20;18.20
34201;DHT22;20469;55.638;37.670;2022-07-29T13:45:37;34.30;18.90
34201;DHT22;20469;55.638;37.670;2022-07-29T13:48:05;33.50;19.30
34201;DHT22;20469;55.638;37.670;2022-07-29T13:50:33;33.40;17.40
34201;DHT22;20469;55.638;37.670;2022-07-29T13:53:00;32.00;16.30
34201;DHT22;20469;55.638;37.670;2022-07-29T13:55:27;30.80;16.50
34201;DHT22;20469;55.638;37.670;2022-07-29T13:57:54;27.70;25.70
34201;DHT22;20469;55.638;37.670;2022-07-29T14:00:21;31.40;20.20
34201;DHT22;20469;55.638;37.670;2022-07-29T14:02:50;30.10;19.20
34201;DHT22;20469;55.638;37.670;2022-07-29T14:05:18;30.30;19.30
34201;DHT22;20469;55.638;37.670;2022-07-29T14:07:45;30.60;20.00
34201;DHT22;20469;55.638;37.670;2022-07-29T14:10:12;29.80;21.00
34201;DHT22;20469;55.638;37.670;2022-07-29T14:12:45;31.10;19.00
34201;DHT22;20469;55.638;37.670;2022-07-29T14:15:12;30.60;19.30
34201;DHT22;20469;55.638;37.670;2022-07-29T14:17:40;32.90;19.50
34201;DHT22;20469;55.638;37.670;2022-07-29T14:20:07;31.60;15.70
34201;DHT22;20469;55.638;37.670;2022-07-29T14:22:35;30.40;19.60
34201;DHT22;20469;55.638;37.670;2022-07-29T14:25:08;30.80;21.00
34201;DHT22;20469;55.638;37.670;2022-07-29T14:27:44;27.10;25.10
34201;DHT22;20469;55.638;37.670;2022-07-29T14:30:12;26.10;30.00
34201;DHT22;20469;55.638;37.670;2022-07-29T14:32:53;25.20;33.10
34201;DHT22;20469;55.638;37.670;2022-07-29T14:35:20;24.90;35.20
34201;DHT22;20469;55.638;37.670;2022-07-29T14:37:47;24.90;37.40
34201;DHT22;20469;55.638;37.670;2022-07-29T14:40:15;25.00;36.10
34201;DHT22;20469;55.638;37.670;2022-07-29T14:42:43;24.90;38.40
34201;DHT22;20469;55.638;37.670;2022-07-29T14:45:10;24.80;36.80
34201;DHT22;20469;55.638;37.670;2022-07-29T14:47:38;24.80;36.60
34201;DHT22;20469;55.638;37.670;2022-07-29T14:50:07;24.80;36.80
34201;DHT22;20469;55.638;37.670;2022-07-29T14:52:57;24.90;37.20
34201;DHT22;20469;55.638;37.670;2022-07-29T14:55:24;25.00;38.50
34201;DHT22;20469;55.638;37.670;2022-07-29T14:57:51;24.80;37.70
34201;DHT22;20469;55.638;37.670;2022-07-29T15:00:29;24.90;37.20
34201;DHT22;20469;55.638;37.670;2022-07-29T15:03:00;24.90;38.90
34201;DHT22;20469;55.638;37.670;2022-07-29T15:05:29;25.10;40.30
34201;DHT22;20469;55.638;37.670;2022-07-29T15:07:57;25.00;37.30
34201;DHT22;20469;55.638;37.670;2022-07-29T15:10:25;24.90;40.90
34201;DHT22;20469;55.638;37.670;2022-07-29T15:12:55;24.80;38.40
34201;DHT22;20469;55.638;37.670;2022-07-29T15:15:23;24.80;39.10
34201;DHT22;20469;55.638;37.670;2022-07-29T15:17:50;25.10;37.10
34201;DHT22;20469;55.638;37.670;2022-07-29T15:20:17;24.90;37.90
34201;DHT22;20469;55.638;37.670;2022-07-29T15:22:44;24.80;38.80
34201;DHT22;20469;55.638;37.670;2022-07-29T15:25:12;24.80;38.00
34201;DHT22;20469;55.638;37.670;2022-07-29T15:27:51;24.90;38.10
34201;DHT22;20469;55.638;37.670;2022-07-29T15:30:22;24.60;39.10
34201;DHT22;20469;55.638;37.670;2022-07-29T15:33:03;24.60;39.20
34201;DHT22;20469;55.638;37.670;2022-07-29T15:35:31;24.40;41.00
34201;DHT22;20469;55.638;37.670;2022-07-29T15:38:07;24.40;40.30
34201;DHT22;20469;55.638;37.670;2022-07-29T15:40:37;24.40;41.30
34201;DHT22;20469;55.638;37.670;2022-07-29T15:43:04;24.30;41.30
34201;DHT22;20469;55.638;37.670;2022-07-29T15:45:41;24.30;41.70
34201;DHT22;20469;55.638;37.670;2022-07-29T15:48:29;24.20;40.90
34201;DHT22;20469;55.638;37.670;2022-07-29T15:50:56;24.20;42.60
34201;DHT22;20469;55.638;37.670;2022-07-29T15:53:23;24.20;43.80
34201;DHT22;20469;55.638;37.670;2022-07-29T15:55:51;24.10;43.30
34201;DHT22;20469;55.638;37.670;2022-07-29T15:58:18;24.10;44.40
34201;DHT22;20469;55.638;37.670;2022-07-29T16:00:45;24.10;44.50
34201;DHT22;20469;55.638;37.670;2022-07-29T16:03:13;24.00;44.90
34201;DHT22;20469;55.638;37.670;2022-07-29T16:05:41;24.00;43.90
34201;DHT22;20469;55.638;37.670;2022-07-29T16:08:08;24.00;44.70
34201;DHT22;20469;55.638;37.670;2022-07-29T16:10:36;24.20;45.80
34201;DHT22;20469;55.638;37.670;2022-07-29T16:13:03;24.10;44.40
34201;DHT22;20469;55.638;37.670;2022-07-29T16:15:30;24.10;45.80
34201;DHT22;20469;55.638;37.670;2022-07-29T16:17:58;24.10;44.00